TX85 weather

City of Fort Worth Heliport
Fort Worth, Texas, United States

Public forecast

Using degrees Fahrenheit for public forecast. Weather courtesy of forecast.io.

METAR (pilot weather report)

Closest report is Fort Worth Meacham International Airport, 3.1 nm (5.8 km) NW. Retrieved 2019/07/23 22:53 UTC (1 hour ago):

KFTW 232253Z 36008KT 10SM SCT070 31/14 A3007 RMK AO2 SLP171 T03110144 $

TAF (pilot weather forecast)

Closest forecast is Fort Worth Meacham International Airport, 3.1 nm (5.8 km) NW. Retrieved 2019/07/23 18:22 UTC (6 hours ago):

TAF KFTW 231720Z 2318/2418 03012G18KT P6SM FEW060 SCT250 FM240000 03010KT P6SM FEW050 SCT250 FM240900 02005KT P6SM SCT250 FM241500 11007KT P6SM SCT250